Time;durP1;ratioP1;P1;durP2;ratioP2;P2;SDS_P1;SDS_P2;PMS_P1;PMS_P2;Temp;Humidity;BMP_temperature;BMP_pressure;BME280_temperature;BME280_humidity;BME280_pressure;Samples;Min_cycle;Max_cycle;Signal;HPM_P1;HPM_P2
2023/06/19 00:01:50;;;;;;;9.88;5.63;;;25.30;99.90;;;;;;4934659;29;20059;-56
2023/06/19 00:04:15;;;;;;;8.10;4.28;;;25.40;99.90;;;;;;4935689;29;20036;-55
2023/06/19 00:06:41;;;;;;;14.95;5.80;;;25.40;99.90;;;;;;4944454;29;20035;-55
2023/06/19 00:09:07;;;;;;;6.60;4.43;;;25.30;99.90;;;;;;4935016;29;20106;-55
2023/06/19 00:11:33;;;;;;;7.45;4.85;;;25.30;99.90;;;;;;4953564;28;20023;-55
2023/06/19 00:14:00;;;;;;;8.65;5.80;;;25.30;99.90;;;;;;4939754;28;20186;-55
2023/06/19 00:16:26;;;;;;;10.07;5.53;;;25.40;99.90;;;;;;4940206;29;20050;-55
2023/06/19 00:18:55;;;;;;;10.68;5.70;;;25.40;99.90;;;;;;4941282;28;20062;-56
2023/06/19 00:21:25;;;;;;;9.25;5.10;;;25.40;99.90;;;;;;4934551;29;20024;-55
2023/06/19 00:23:52;;;;;;;6.72;5.40;;;25.40;99.90;;;;;;4934615;29;20375;-56
2023/06/19 00:26:19;;;;;;;8.80;5.20;;;25.40;99.90;;;;;;4934433;29;20377;-57
2023/06/19 00:28:47;;;;;;;9.27;5.22;;;25.40;99.90;;;;;;4934401;29;20225;-56
2023/06/19 00:31:14;;;;;;;11.23;4.75;;;25.40;99.90;;;;;;4952788;29;20022;-56
2023/06/19 00:33:40;;;;;;;6.28;4.68;;;25.40;99.90;;;;;;4939556;29;20032;-56
2023/06/19 00:36:10;;;;;;;8.73;5.28;;;25.40;99.90;;;;;;4936991;29;20074;-56
2023/06/19 00:38:36;;;;;;;10.13;5.20;;;25.30;99.90;;;;;;4937656;29;20042;-56
2023/06/19 00:41:04;;;;;;;6.80;5.10;;;25.30;99.90;;;;;;4944599;29;20539;-56
2023/06/19 00:43:30;;;;;;;11.93;8.15;;;25.30;99.90;;;;;;4942631;29;20034;-56
2023/06/19 00:46:00;;;;;;;7.45;6.45;;;25.30;99.90;;;;;;4958923;28;20447;-56
2023/06/19 00:48:28;;;;;;;10.50;5.50;;;25.30;99.90;;;;;;4943151;28;20031;-56
2023/06/19 00:50:54;;;;;;;6.65;5.65;;;25.20;99.90;;;;;;4956044;29;20083;-55
2023/06/19 00:53:21;;;;;;;8.17;4.90;;;25.20;99.90;;;;;;4956670;28;20040;-56
2023/06/19 00:55:48;;;;;;;8.52;5.05;;;25.20;99.90;;;;;;4936477;29;20046;-56
2023/06/19 00:58:15;;;;;;;9.32;4.65;;;25.20;99.90;;;;;;4936256;29;20043;-56
2023/06/19 01:00:40;;;;;;;7.90;4.82;;;25.20;99.90;;;;;;4949272;23;20050;-46
2023/06/19 01:03:06;;;;;;;9.73;5.05;;;25.20;99.90;;;;;;4937186;29;20111;-46
2023/06/19 01:05:33;;;;;;;10.18;4.90;;;25.10;99.90;;;;;;4936068;29;20028;-46
2023/06/19 01:08:41;;;;;;;7.82;4.72;;;25.20;99.90;;;;;;4936872;29;20087;-44
2023/06/19 01:11:08;;;;;;;10.55;5.45;;;25.10;99.90;;;;;;4936854;29;20055;-45
2023/06/19 01:14:10;;;;;;;10.40;6.65;;;25.10;99.90;;;;;;4937144;29;20031;-45
2023/06/19 01:16:36;;;;;;;6.93;5.18;;;25.20;99.90;;;;;;4921454;29;20046;-45
2023/06/19 01:19:05;;;;;;;10.38;4.88;;;25.20;99.90;;;;;;4936820;29;20062;-45
2023/06/19 01:21:31;;;;;;;8.57;5.38;;;25.10;99.90;;;;;;4935513;29;20020;-45
2023/06/19 01:23:57;;;;;;;6.38;4.50;;;25.10;99.90;;;;;;4937136;29;20391;-45
2023/06/19 01:26:27;;;;;;;6.68;4.72;;;25.10;99.90;;;;;;4935761;29;20083;-45
2023/06/19 01:28:54;;;;;;;9.45;4.75;;;25.10;99.90;;;;;;4935923;29;20028;-45
2023/06/19 01:31:25;;;;;;;9.75;5.57;;;25.10;99.90;;;;;;4936979;29;20387;-45
2023/06/19 01:33:52;;;;;;;7.97;5.07;;;25.10;99.90;;;;;;4936783;29;20031;-45
2023/06/19 01:36:20;;;;;;;10.93;5.57;;;25.10;99.90;;;;;;4935412;29;20627;-45
2023/06/19 01:38:48;;;;;;;9.38;5.00;;;25.10;99.90;;;;;;4935391;29;20043;-45
2023/06/19 01:41:15;;;;;;;8.18;4.85;;;25.20;99.90;;;;;;4936284;29;20027;-45
2023/06/19 01:43:42;;;;;;;8.15;4.97;;;25.10;99.90;;;;;;4936492;29;20028;-45
2023/06/19 01:46:08;;;;;;;10.10;4.80;;;25.20;99.90;;;;;;4935923;29;20132;-45
2023/06/19 01:48:36;;;;;;;10.88;5.28;;;25.20;99.90;;;;;;4936213;29;20476;-45
2023/06/19 01:51:03;;;;;;;6.35;5.07;;;25.20;99.90;;;;;;4936404;29;20051;-46
2023/06/19 01:53:31;;;;;;;13.93;5.03;;;25.20;99.90;;;;;;4924121;29;20059;-45
2023/06/19 01:55:58;;;;;;;7.18;4.18;;;25.10;99.90;;;;;;4936059;29;20051;-45
2023/06/19 01:58:23;;;;;;;7.77;4.50;;;25.20;99.90;;;;;;4936292;29;20468;-45
2023/06/19 02:00:49;;;;;;;5.68;3.78;;;25.10;99.90;;;;;;4952067;23;20059;-55
2023/06/19 02:03:15;;;;;;;7.00;3.70;;;25.10;99.90;;;;;;4936823;29;20023;-57
2023/06/19 02:05:42;;;;;;;7.10;4.15;;;25.20;99.90;;;;;;4936206;29;20163;-55
2023/06/19 02:08:08;;;;;;;8.05;4.07;;;25.10;99.90;;;;;;4934817;29;20019;-55
2023/06/19 02:10:34;;;;;;;9.88;3.72;;;25.10;99.90;;;;;;4934547;29;20047;-55
2023/06/19 02:13:00;;;;;;;10.75;5.10;;;25.10;99.90;;;;;;4936161;29;20036;-57
2023/06/19 02:15:25;;;;;;;8.07;4.65;;;25.10;99.90;;;;;;4936251;29;20079;-55
2023/06/19 02:17:54;;;;;;;10.73;5.25;;;25.10;99.90;;;;;;4936495;29;20036;-61
2023/06/19 02:20:21;;;;;;;11.45;4.53;;;25.10;99.90;;;;;;4946974;29;20079;-56
2023/06/19 02:22:47;;;;;;;7.55;4.93;;;25.10;99.90;;;;;;4935599;29;20015;-56
2023/06/19 02:25:13;;;;;;;9.63;5.03;;;25.20;99.90;;;;;;4935637;29;20499;-57
2023/06/19 02:27:39;;;;;;;9.40;4.13;;;25.20;99.90;;;;;;4935876;29;20034;-56
2023/06/19 02:30:05;;;;;;;8.48;4.93;;;25.20;99.90;;;;;;4950436;28;20028;-56
2023/06/19 02:32:31;;;;;;;6.97;4.30;;;25.20;99.90;;;;;;4935318;29;20056;-57
2023/06/19 02:34:57;;;;;;;5.85;4.13;;;25.20;99.90;;;;;;4935682;29;20549;-56
2023/06/19 02:37:23;;;;;;;6.97;4.28;;;25.20;99.90;;;;;;4935526;29;20024;-56
2023/06/19 02:39:49;;;;;;;7.20;4.03;;;25.20;99.90;;;;;;4935312;29;20031;-55
2023/06/19 02:42:15;;;;;;;8.60;4.35;;;25.20;99.90;;;;;;4935676;29;20028;-54
2023/06/19 02:44:42;;;;;;;7.80;4.13;;;25.20;99.90;;;;;;4950100;29;20027;-54
2023/06/19 02:47:08;;;;;;;5.35;4.72;;;25.20;99.90;;;;;;4935423;29;20027;-54
2023/06/19 02:49:34;;;;;;;8.93;4.50;;;25.20;99.90;;;;;;4935189;29;20032;-54
2023/06/19 02:52:00;;;;;;;7.50;4.32;;;25.20;99.90;;;;;;4935590;29;20163;-55
2023/06/19 02:54:25;;;;;;;9.05;4.50;;;25.20;99.90;;;;;;4933785;29;20477;-55
2023/06/19 02:56:51;;;;;;;8.80;4.60;;;25.20;99.90;;;;;;4935316;29;20035;-55
2023/06/19 02:59:17;;;;;;;13.32;5.05;;;25.20;99.90;;;;;;4946944;29;20490;-55
2023/06/19 03:01:43;;;;;;;11.07;5.45;;;25.20;99.90;;;;;;4957130;23;20459;-53
2023/06/19 03:04:08;;;;;;;14.05;6.65;;;25.10;99.90;;;;;;4954496;29;20037;-53
2023/06/19 03:06:39;;;;;;;9.98;5.82;;;25.10;99.90;;;;;;4936672;29;20104;-53
2023/06/19 03:09:11;;;;;;;13.00;5.80;;;25.10;99.90;;;;;;4935152;29;20445;-53
2023/06/19 03:11:41;;;;;;;12.25;6.30;;;25.10;99.90;;;;;;4934666;29;20500;-53
2023/06/19 03:14:08;;;;;;;16.08;7.03;;;25.10;99.90;;;;;;4934978;29;20032;-53
2023/06/19 03:16:35;;;;;;;12.75;7.65;;;25.10;99.90;;;;;;4934890;29;20024;-54
2023/06/19 03:19:01;;;;;;;11.10;6.15;;;25.10;99.90;;;;;;4934958;29;20035;-53
2023/06/19 03:21:27;;;;;;;12.45;6.78;;;25.00;99.90;;;;;;4934910;29;20028;-53
2023/06/19 03:23:53;;;;;;;11.32;6.30;;;25.00;99.90;;;;;;4934708;29;20024;-53
2023/06/19 03:26:20;;;;;;;13.57;6.95;;;25.10;99.90;;;;;;4934864;29;20531;-53
2023/06/19 03:28:48;;;;;;;12.55;6.63;;;25.10;99.90;;;;;;4934854;29;20588;-53
2023/06/19 03:31:15;;;;;;;13.27;7.00;;;25.00;99.90;;;;;;4934393;29;20023;-53
2023/06/19 03:33:41;;;;;;;11.30;6.43;;;25.10;99.90;;;;;;4934516;29;20032;-53
2023/06/19 03:36:07;;;;;;;12.27;5.95;;;25.10;99.90;;;;;;4935144;29;20301;-53
2023/06/19 03:38:33;;;;;;;17.08;6.57;;;25.10;99.90;;;;;;4934930;29;20150;-53
2023/06/19 03:40:59;;;;;;;12.05;6.05;;;25.10;99.90;;;;;;4939567;29;20043;-50
2023/06/19 03:43:24;;;;;;;12.10;5.88;;;25.10;99.90;;;;;;4942520;29;20055;-53
2023/06/19 03:45:50;;;;;;;8.77;5.18;;;25.10;99.90;;;;;;4934675;29;20024;-50
2023/06/19 03:48:17;;;;;;;9.38;5.70;;;25.10;99.90;;;;;;4934565;29;20038;-53
2023/06/19 03:50:43;;;;;;;8.32;5.30;;;25.20;99.90;;;;;;4934751;29;20024;-53
2023/06/19 03:53:09;;;;;;;10.05;5.55;;;25.20;99.90;;;;;;4934719;29;20032;-51
2023/06/19 03:55:35;;;;;;;9.38;5.13;;;25.20;99.90;;;;;;4947284;29;20042;-52
2023/06/19 03:58:01;;;;;;;9.73;5.13;;;25.20;99.90;;;;;;4933801;29;20024;-52
2023/06/19 04:00:27;;;;;;;7.50;4.68;;;25.20;99.90;;;;;;4934901;29;20063;-52
2023/06/19 04:02:52;;;;;;;9.43;4.43;;;25.20;99.90;;;;;;4934330;29;20055;-51
2023/06/19 04:05:19;;;;;;;6.97;4.68;;;25.20;99.90;;;;;;4934653;29;20106;-51
2023/06/19 04:07:45;;;;;;;11.00;5.05;;;25.20;99.90;;;;;;4934544;29;20020;-52
2023/06/19 04:10:11;;;;;;;8.38;4.68;;;25.20;99.90;;;;;;4941903;29;20027;-52
2023/06/19 04:12:37;;;;;;;9.93;4.78;;;25.20;99.90;;;;;;4945055;29;20028;-52
2023/06/19 04:15:04;;;;;;;10.70;4.97;;;25.20;99.90;;;;;;4938363;29;20038;-52
2023/06/19 04:17:29;;;;;;;10.10;5.00;;;25.30;99.90;;;;;;4937947;29;20059;-52
2023/06/19 04:19:55;;;;;;;10.38;5.15;;;25.30;99.90;;;;;;4938059;29;20496;-52
2023/06/19 04:22:21;;;;;;;13.43;6.65;;;25.30;99.90;;;;;;4938011;29;20028;-52
2023/06/19 04:24:47;;;;;;;10.95;5.18;;;25.30;99.90;;;;;;4938008;29;20035;-52
2023/06/19 04:27:12;;;;;;;9.35;5.15;;;25.30;99.90;;;;;;4938075;29;20032;-52
2023/06/19 04:29:38;;;;;;;12.05;5.22;;;25.20;99.90;;;;;;4937984;29;20032;-51
2023/06/19 04:32:11;;;;;;;13.55;5.07;;;25.30;99.90;;;;;;4937878;29;20114;-52
2023/06/19 04:34:38;;;;;;;12.35;5.03;;;25.20;99.90;;;;;;4949041;29;20539;-52
2023/06/19 04:37:04;;;;;;;7.78;4.28;;;25.20;99.90;;;;;;4938141;29;20035;-52
2023/06/19 04:39:30;;;;;;;8.13;4.90;;;25.20;99.90;;;;;;4937571;29;20028;-52
2023/06/19 04:41:55;;;;;;;7.05;4.40;;;25.20;99.90;;;;;;4937823;29;20031;-52
2023/06/19 04:44:21;;;;;;;10.20;4.97;;;25.20;99.90;;;;;;4950992;29;20027;-52
2023/06/19 04:46:47;;;;;;;12.65;4.60;;;25.20;99.90;;;;;;4956730;29;20368;-52
2023/06/19 04:49:13;;;;;;;8.00;4.47;;;25.20;99.90;;;;;;4942443;29;20106;-52
2023/06/19 04:51:41;;;;;;;10.68;5.30;;;25.20;99.90;;;;;;4937594;29;20102;-52
2023/06/19 04:54:06;;;;;;;7.07;4.72;;;25.20;99.90;;;;;;4937803;29;20396;-52
2023/06/19 04:56:32;;;;;;;8.70;4.57;;;25.20;99.90;;;;;;4937387;29;20130;-52
2023/06/19 04:58:59;;;;;;;11.52;4.13;;;25.20;99.90;;;;;;4947650;29;20031;-52
2023/06/19 05:01:30;;;;;;;9.43;4.72;;;25.10;99.90;;;;;;4939545;29;20039;-52
2023/06/19 05:03:56;;;;;;;13.32;4.55;;;25.10;99.90;;;;;;4937156;29;20035;-52
2023/06/19 05:06:23;;;;;;;10.18;4.22;;;25.10;99.90;;;;;;4937133;29;20022;-52
2023/06/19 05:08:49;;;;;;;10.02;4.60;;;25.20;99.90;;;;;;4937147;29;20038;-52
2023/06/19 05:11:15;;;;;;;11.13;4.20;;;25.20;99.90;;;;;;4937022;29;20023;-52
2023/06/19 05:13:41;;;;;;;11.57;4.55;;;25.20;99.90;;;;;;4937078;29;20122;-52
2023/06/19 05:16:07;;;;;;;12.73;4.22;;;25.20;99.90;;;;;;4937404;29;20511;-52
2023/06/19 05:18:32;;;;;;;8.60;4.32;;;25.20;99.90;;;;;;4937061;29;20090;-52
2023/06/19 05:20:58;;;;;;;12.10;5.30;;;25.20;99.90;;;;;;4936477;29;20060;-52
2023/06/19 05:23:24;;;;;;;8.65;4.80;;;25.20;99.90;;;;;;4936770;29;20030;-52
2023/06/19 05:25:50;;;;;;;9.02;5.03;;;25.20;99.90;;;;;;4936888;29;20023;-52
2023/06/19 05:28:16;;;;;;;9.05;5.07;;;25.20;99.90;;;;;;4936849;29;20024;-52
2023/06/19 05:30:42;;;;;;;11.38;5.32;;;25.20;99.90;;;;;;4936972;29;20151;-52
2023/06/19 05:33:07;;;;;;;10.00;6.00;;;25.20;99.90;;;;;;4936890;29;20143;-52
2023/06/19 05:35:33;;;;;;;11.40;5.72;;;25.20;99.90;;;;;;4946397;29;20114;-52
2023/06/19 05:37:59;;;;;;;9.57;5.10;;;25.20;99.90;;;;;;4941747;29;20023;-52
2023/06/19 05:40:25;;;;;;;11.68;5.53;;;25.20;99.90;;;;;;4945967;29;20020;-52
2023/06/19 05:42:50;;;;;;;10.32;5.38;;;25.20;99.90;;;;;;4936529;29;20472;-52
2023/06/19 05:45:16;;;;;;;11.88;5.63;;;25.20;99.90;;;;;;4936692;29;20465;-52
2023/06/19 05:47:42;;;;;;;15.88;6.70;;;25.20;99.90;;;;;;4936315;29;20056;-52
2023/06/19 05:50:08;;;;;;;19.35;6.90;;;25.20;99.90;;;;;;4936573;29;20032;-52
2023/06/19 05:52:34;;;;;;;17.75;7.43;;;25.20;99.90;;;;;;4934953;29;20031;-52
2023/06/19 05:55:00;;;;;;;17.02;8.13;;;25.20;99.90;;;;;;4936064;29;20396;-52
2023/06/19 05:57:26;;;;;;;21.83;6.97;;;25.20;99.90;;;;;;4936419;29;20027;-52
2023/06/19 05:59:52;;;;;;;16.75;6.85;;;25.20;99.90;;;;;;4936245;29;20483;-52
2023/06/19 06:02:19;;;;;;;17.10;6.55;;;25.10;99.90;;;;;;4936063;29;20064;-53
2023/06/19 06:04:45;;;;;;;15.73;8.27;;;25.20;99.90;;;;;;4936083;29;20457;-52
2023/06/19 06:07:11;;;;;;;21.17;7.97;;;25.10;99.90;;;;;;4936563;29;20026;-52
2023/06/19 06:09:37;;;;;;;21.25;7.88;;;25.10;99.90;;;;;;4936038;29;20108;-52
2023/06/19 06:12:03;;;;;;;15.07;8.10;;;25.10;99.90;;;;;;4944751;29;20114;-52
2023/06/19 06:14:29;;;;;;;14.80;6.70;;;25.10;99.90;;;;;;4939509;29;20036;-52
2023/06/19 06:16:55;;;;;;;18.60;6.47;;;25.00;99.90;;;;;;4935848;29;20030;-52
2023/06/19 06:19:23;;;;;;;18.27;7.10;;;25.10;99.90;;;;;;4936042;29;20031;-52
2023/06/19 06:21:49;;;;;;;15.07;6.07;;;25.10;99.90;;;;;;4936011;29;20102;-52
2023/06/19 06:24:16;;;;;;;11.88;6.03;;;25.10;99.90;;;;;;4935723;29;20027;-52
2023/06/19 06:26:42;;;;;;;13.82;5.18;;;25.00;99.90;;;;;;4936245;29;20066;-52
2023/06/19 06:29:08;;;;;;;16.05;5.57;;;25.10;99.90;;;;;;4937784;29;20114;-52
2023/06/19 06:31:35;;;;;;;15.85;5.45;;;25.10;99.90;;;;;;4945108;29;20031;-52
2023/06/19 06:34:00;;;;;;;10.90;6.40;;;25.10;99.90;;;;;;4935620;29;20031;-52
2023/06/19 06:36:26;;;;;;;14.45;6.15;;;25.10;99.90;;;;;;4935519;29;20031;-52
2023/06/19 06:38:52;;;;;;;10.85;6.35;;;25.10;99.90;;;;;;4947825;29;20053;-52
2023/06/19 06:41:18;;;;;;;16.70;6.53;;;25.10;99.90;;;;;;4947312;29;20370;-52
2023/06/19 06:43:43;;;;;;;12.38;6.55;;;25.10;99.90;;;;;;4948155;29;20023;-53
2023/06/19 06:46:10;;;;;;;14.77;6.72;;;25.10;99.90;;;;;;4935669;29;20092;-54
2023/06/19 06:48:36;;;;;;;9.75;5.93;;;25.10;99.90;;;;;;4945627;29;20027;-53
2023/06/19 06:51:02;;;;;;;11.57;5.57;;;25.10;99.90;;;;;;4937805;29;20038;-53
2023/06/19 06:53:29;;;;;;;16.20;6.32;;;25.10;99.90;;;;;;4935327;29;20024;-53
2023/06/19 06:55:55;;;;;;;10.75;6.25;;;25.10;99.90;;;;;;4950220;29;20388;-52
2023/06/19 06:58:21;;;;;;;17.67;6.72;;;25.20;99.90;;;;;;4945249;29;20024;-53
2023/06/19 07:00:47;;;;;;;12.25;6.93;;;25.20;99.90;;;;;;4935118;29;20067;-52
2023/06/19 07:03:13;;;;;;;14.73;6.10;;;25.20;99.90;;;;;;4935237;29;20027;-53
2023/06/19 07:05:39;;;;;;;13.18;5.82;;;25.30;99.90;;;;;;4933865;29;20036;-53
2023/06/19 07:08:04;;;;;;;17.63;6.05;;;25.30;99.90;;;;;;4938473;29;20107;-53
2023/06/19 07:10:31;;;;;;;18.48;6.18;;;25.30;99.90;;;;;;4944202;29;20504;-53
2023/06/19 07:12:57;;;;;;;11.95;5.70;;;25.40;99.90;;;;;;4935092;29;20094;-54
2023/06/19 07:15:23;;;;;;;20.63;7.78;;;25.40;99.90;;;;;;4943491;29;20523;-53
2023/06/19 07:17:48;;;;;;;15.98;6.07;;;25.40;99.90;;;;;;4938967;29;20070;-53
2023/06/19 07:20:15;;;;;;;20.60;7.38;;;25.50;99.90;;;;;;4935332;29;20589;-53
2023/06/19 07:22:42;;;;;;;16.65;6.78;;;25.40;99.90;;;;;;4947346;29;20024;-53
2023/06/19 07:25:09;;;;;;;15.32;7.18;;;25.50;99.90;;;;;;4946426;29;20095;-53
2023/06/19 07:27:35;;;;;;;;;;;25.50;99.90;;;;;;4935324;29;20476;-53
2023/06/19 07:30:01;;;;;;;18.05;7.07;;;25.50;99.90;;;;;;4934668;29;19930;-53
2023/06/19 07:32:27;;;;;;;20.75;8.13;;;25.40;99.90;;;;;;4934754;29;20361;-53
2023/06/19 07:34:53;;;;;;;15.15;5.90;;;25.40;99.90;;;;;;4934653;29;20035;-53
2023/06/19 07:37:20;;;;;;;15.43;7.03;;;25.40;99.90;;;;;;4934855;29;20532;-53
2023/06/19 07:39:50;;;;;;;18.67;6.47;;;25.40;99.90;;;;;;4935174;29;20401;-53
2023/06/19 07:42:17;;;;;;;15.43;6.07;;;25.40;99.90;;;;;;4935007;29;20024;-52
2023/06/19 07:44:43;;;;;;;18.75;5.80;;;25.50;99.90;;;;;;4935599;29;20480;-53
2023/06/19 07:47:09;;;;;;;11.75;5.53;;;25.50;99.90;;;;;;4938458;29;20060;-53
2023/06/19 07:49:36;;;;;;;12.20;5.38;;;25.60;99.90;;;;;;4938337;29;20038;-53
2023/06/19 07:52:05;;;;;;;14.25;6.13;;;25.60;99.90;;;;;;4938745;29;20024;-52
2023/06/19 07:54:33;;;;;;;13.70;5.43;;;25.70;99.90;;;;;;4939593;29;20028;-53
2023/06/19 07:56:59;;;;;;;13.20;6.13;;;25.70;99.90;;;;;;4949393;29;20020;-53
2023/06/19 07:59:25;;;;;;;27.30;7.45;;;25.70;99.90;;;;;;4938475;29;20020;-53
2023/06/19 08:01:50;;;;;;;12.68;7.45;;;25.70;99.90;;;;;;4938180;29;20052;-52
2023/06/19 08:04:16;;;;;;;21.02;7.57;;;25.80;99.90;;;;;;4938570;29;20023;-52
2023/06/19 08:06:42;;;;;;;19.85;7.45;;;25.80;99.90;;;;;;4938350;29;20039;-53
2023/06/19 08:09:07;;;;;;;18.13;8.50;;;25.80;99.90;;;;;;4940914;29;20028;-53
2023/06/19 08:11:33;;;;;;;16.40;7.97;;;25.80;99.90;;;;;;4938312;29;20042;-53
2023/06/19 08:13:59;;;;;;;19.08;9.98;;;25.90;99.90;;;;;;4938305;29;20034;-52
2023/06/19 08:16:26;;;;;;;18.00;9.38;;;25.90;99.90;;;;;;4952762;29;20122;-53
2023/06/19 08:18:51;;;;;;;18.23;7.90;;;25.90;99.90;;;;;;4947265;29;20047;-52
2023/06/19 08:21:18;;;;;;;23.15;8.65;;;25.90;99.90;;;;;;4938324;29;20504;-53
2023/06/19 08:23:44;;;;;;;13.25;8.55;;;25.90;99.90;;;;;;4938442;29;20082;-53
2023/06/19 08:26:10;;;;;;;18.17;7.13;;;26.00;99.90;;;;;;4937830;29;20511;-53
2023/06/19 08:28:38;;;;;;;15.57;8.68;;;26.00;99.90;;;;;;4945068;29;20480;-53
2023/06/19 08:31:04;;;;;;;13.02;8.30;;;26.00;99.90;;;;;;4943059;29;20031;-53
2023/06/19 08:33:29;;;;;;;11.30;6.90;;;26.00;99.90;;;;;;4937853;29;20024;-53
2023/06/19 08:35:55;;;;;;;13.65;7.40;;;26.10;99.90;;;;;;4937830;29;20091;-53
2023/06/19 08:38:21;;;;;;;16.42;8.75;;;26.10;99.90;;;;;;4937628;29;20042;-53
2023/06/19 08:40:47;;;;;;;20.13;7.85;;;26.10;99.90;;;;;;4937910;29;20032;-53
2023/06/19 08:43:13;;;;;;;17.60;7.07;;;26.10;99.90;;;;;;4950385;29;20028;-52
2023/06/19 08:45:39;;;;;;;21.15;8.98;;;26.20;99.90;;;;;;4937653;29;20031;-53
2023/06/19 08:48:05;;;;;;;19.65;7.40;;;26.20;99.90;;;;;;4920379;29;20024;-53
2023/06/19 08:50:32;;;;;;;13.93;8.20;;;26.20;99.90;;;;;;4937526;29;20024;-53
2023/06/19 08:52:58;;;;;;;20.48;8.23;;;26.20;99.90;;;;;;4937449;29;20024;-52
2023/06/19 08:55:24;;;;;;;19.67;8.20;;;26.20;99.90;;;;;;4937048;29;20039;-53
2023/06/19 08:57:52;;;;;;;13.48;8.05;;;26.30;99.90;;;;;;4936340;29;20532;-52
2023/06/19 09:00:25;;;;;;;13.77;7.32;;;26.30;99.90;;;;;;4937591;29;20115;-53
2023/06/19 09:02:52;;;;;;;21.40;8.10;;;26.30;99.90;;;;;;4936760;29;20543;-53
2023/06/19 09:05:19;;;;;;;15.05;7.47;;;26.30;99.90;;;;;;4937364;29;20048;-53
2023/06/19 09:07:58;;;;;;;15.32;8.88;;;26.30;99.90;;;;;;4936847;29;20349;-52
2023/06/19 09:10:24;;;;;;;11.48;6.88;;;26.40;99.90;;;;;;4937032;29;20035;-52
2023/06/19 09:13:03;;;;;;;15.30;8.45;;;26.40;99.90;;;;;;4949595;29;20020;-52
2023/06/19 09:15:36;;;;;;;15.13;7.00;;;26.40;99.90;;;;;;4936980;29;20040;-52
2023/06/19 09:18:07;;;;;;;12.13;8.07;;;26.40;99.90;;;;;;4936433;29;20413;-52
2023/06/19 09:20:35;;;;;;;13.85;7.90;;;26.40;99.90;;;;;;4936848;29;20405;-52
2023/06/19 09:23:01;;;;;;;15.50;7.88;;;26.40;99.90;;;;;;4936968;29;20111;-52
2023/06/19 09:25:27;;;;;;;13.55;7.43;;;26.40;99.90;;;;;;4936596;29;20535;-53
2023/06/19 09:27:54;;;;;;;11.63;7.45;;;26.40;99.90;;;;;;4936588;29;20031;-53
2023/06/19 09:30:20;;;;;;;14.90;7.53;;;26.40;99.90;;;;;;4936670;29;20059;-52
2023/06/19 09:32:46;;;;;;;14.57;7.47;;;26.40;99.90;;;;;;4951246;29;20027;-53
2023/06/19 09:35:12;;;;;;;20.80;8.25;;;26.40;99.90;;;;;;4955651;29;20032;-53
2023/06/19 09:37:40;;;;;;;12.40;8.70;;;26.50;99.90;;;;;;4940574;29;20040;-52
2023/06/19 09:40:10;;;;;;;16.50;8.25;;;26.50;99.90;;;;;;4936284;29;20523;-53
2023/06/19 09:42:44;;;;;;;12.30;7.28;;;26.40;99.90;;;;;;4935071;29;20126;-53
2023/06/19 09:45:14;;;;;;;18.33;7.07;;;26.40;99.90;;;;;;4936414;29;20020;-53
2023/06/19 09:47:45;;;;;;;21.33;8.32;;;26.40;99.90;;;;;;4947825;29;20425;-52
2023/06/19 09:50:15;;;;;;;11.60;7.63;;;26.40;99.90;;;;;;4949408;28;20063;-53
2023/06/19 09:52:43;;;;;;;13.48;8.32;;;26.40;99.90;;;;;;4942448;28;20074;-52
2023/06/19 09:55:12;;;;;;;15.80;8.52;;;26.50;99.90;;;;;;4946996;29;20032;-52
2023/06/19 09:57:39;;;;;;;13.18;7.70;;;26.40;99.90;;;;;;4948882;29;20114;-52
2023/06/19 10:00:11;;;;;;;15.00;10.60;;;26.50;99.90;;;;;;4936282;29;20086;-52
2023/06/19 10:02:41;;;;;;;19.38;14.45;;;26.50;99.90;;;;;;4935634;29;20531;-52
2023/06/19 10:05:14;;;;;;;16.55;11.07;;;26.50;99.90;;;;;;4938362;29;20024;-53
2023/06/19 10:07:45;;;;;;;19.38;9.23;;;26.50;99.90;;;;;;4935578;29;20484;-53
2023/06/19 10:10:36;;;;;;;21.40;10.55;;;26.60;99.90;;;;;;4935684;29;20110;-52
2023/06/19 10:13:14;;;;;;;13.05;8.32;;;26.50;99.90;;;;;;4935569;29;20035;-53
2023/06/19 10:15:44;;;;;;;14.30;8.38;;;26.50;99.90;;;;;;4935633;29;20035;-52
2023/06/19 10:18:18;;;;;;;18.75;9.25;;;26.50;99.90;;;;;;4952974;29;20023;-53
2023/06/19 10:20:45;;;;;;;20.77;13.38;;;26.50;99.90;;;;;;4953445;29;20031;-51
2023/06/19 10:23:21;;;;;;;20.83;12.10;;;26.40;99.90;;;;;;4953292;29;20020;-52
2023/06/19 10:25:54;;;;;;;20.15;15.20;;;26.40;99.90;;;;;;4942677;29;20031;-51
2023/06/19 10:28:27;;;;;;;22.20;13.88;;;26.40;99.90;;;;;;4935781;29;20433;-52
2023/06/19 10:31:04;;;;;;;14.20;9.15;;;26.40;99.90;;;;;;4935714;29;20034;-52
2023/06/19 10:33:34;;;;;;;14.18;8.43;;;26.40;99.90;;;;;;4935372;29;20028;-52
2023/06/19 10:36:02;;;;;;;14.02;9.45;;;26.40;99.90;;;;;;4934864;29;20039;-51
2023/06/19 10:38:28;;;;;;;;;;;26.40;99.90;;;;;;4935612;29;20015;-50
2023/06/19 10:40:54;;;;;;;22.25;11.13;;;26.40;99.90;;;;;;4935112;29;19922;-50
2023/06/19 10:43:22;;;;;;;20.13;8.95;;;26.50;99.90;;;;;;4934368;29;20019;-51
2023/06/19 10:45:48;;;;;;;19.33;9.07;;;26.50;99.90;;;;;;4935172;29;20032;-51
2023/06/19 10:48:23;;;;;;;16.25;8.00;;;26.50;99.90;;;;;;4933702;29;20369;-50
2023/06/19 10:50:49;;;;;;;13.45;8.35;;;26.50;99.90;;;;;;4935224;29;20508;-51
2023/06/19 10:53:25;;;;;;;18.60;8.45;;;26.60;99.90;;;;;;4934185;29;20027;-52
2023/06/19 10:55:59;;;;;;;16.02;8.60;;;26.60;99.90;;;;;;4934914;29;20087;-51
2023/06/19 10:58:25;;;;;;;19.23;8.55;;;26.60;99.90;;;;;;4934918;29;20044;-52
2023/06/19 11:00:51;;;;;;;17.33;8.25;;;26.60;99.90;;;;;;4934779;29;20032;-52
2023/06/19 11:03:18;;;;;;;18.95;8.30;;;26.60;99.90;;;;;;4941981;29;20031;-50
2023/06/19 11:05:45;;;;;;;14.50;7.82;;;26.60;99.90;;;;;;4939350;28;20039;-50
2023/06/19 11:08:21;;;;;;;17.63;7.80;;;26.60;99.90;;;;;;4947577;28;20024;-50
2023/06/19 11:10:47;;;;;;;20.13;8.35;;;26.70;99.90;;;;;;4952224;28;20388;-51
2023/06/19 11:13:18;;;;;;;17.13;8.35;;;26.70;99.90;;;;;;4947548;28;20520;-52
2023/06/19 11:15:44;;;;;;;15.45;7.88;;;26.70;99.90;;;;;;4948910;28;20054;-52
2023/06/19 11:18:10;;;;;;;16.00;8.07;;;26.70;99.90;;;;;;4948789;28;20047;-52
2023/06/19 11:20:51;;;;;;;16.52;8.27;;;26.60;99.90;;;;;;4949065;28;20432;-52
2023/06/19 11:23:27;;;;;;;16.95;7.93;;;26.70;99.90;;;;;;4948675;28;20075;-51
2023/06/19 11:25:52;;;;;;;21.25;7.75;;;26.70;99.90;;;;;;4951390;28;20023;-52
2023/06/19 11:28:22;;;;;;;17.25;8.45;;;26.70;99.90;;;;;;4950292;28;20038;-52
2023/06/19 11:30:49;;;;;;;18.23;8.00;;;26.70;99.90;;;;;;4950949;28;20027;-52
2023/06/19 11:33:24;;;;;;;19.73;9.43;;;26.80;99.90;;;;;;4949925;28;20031;-52
2023/06/19 11:35:54;;;;;;;23.45;10.38;;;26.80;99.90;;;;;;4945401;28;20119;-51
2023/06/19 11:38:22;;;;;;;15.77;8.70;;;26.80;99.90;;;;;;4950370;28;20205;-52
2023/06/19 11:40:48;;;;;;;20.90;8.52;;;26.80;99.90;;;;;;4965095;28;20051;-52
2023/06/19 11:43:25;;;;;;;12.15;8.18;;;26.80;99.90;;;;;;4954236;28;20420;-51
2023/06/19 11:45:52;;;;;;;16.67;8.98;;;26.90;99.90;;;;;;4970833;28;20023;-52
2023/06/19 11:48:24;;;;;;;20.20;10.00;;;26.90;99.90;;;;;;4952000;28;20031;-52
2023/06/19 11:50:51;;;;;;;20.63;11.10;;;26.90;99.90;;;;;;4950147;28;20098;-52
2023/06/19 11:53:18;;;;;;;34.17;13.30;;;26.90;99.90;;;;;;4952871;28;20019;-52
2023/06/19 11:55:43;;;;;;;45.67;13.85;;;26.90;99.90;;;;;;4949876;28;20044;-52
2023/06/19 11:58:10;;;;;;;31.40;13.25;;;26.90;99.90;;;;;;4950161;28;20028;-52
2023/06/19 12:00:38;;;;;;;28.52;11.32;;;27.00;99.90;;;;;;4948947;28;20024;-52
2023/06/19 12:03:04;;;;;;;28.42;11.13;;;27.00;99.90;;;;;;4945296;28;20038;-52
2023/06/19 12:05:30;;;;;;;18.00;9.80;;;27.00;99.90;;;;;;4951478;28;20016;-52
2023/06/19 12:07:57;;;;;;;23.50;10.13;;;27.00;99.90;;;;;;4950943;28;20387;-52
2023/06/19 12:10:22;;;;;;;20.30;8.93;;;27.10;99.90;;;;;;4953079;28;20030;-52
2023/06/19 12:12:48;;;;;;;18.88;9.80;;;27.10;99.90;;;;;;4961995;28;20043;-51
2023/06/19 12:15:14;;;;;;;20.67;9.27;;;27.20;99.90;;;;;;4956880;28;20101;-52
2023/06/19 12:17:40;;;;;;;19.92;9.10;;;27.20;99.90;;;;;;4952240;28;20027;-51
2023/06/19 12:20:07;;;;;;;16.17;7.88;;;27.30;99.90;;;;;;4948206;28;20027;-52
2023/06/19 12:22:36;;;;;;;14.43;7.55;;;27.30;99.90;;;;;;4946782;28;20028;-52
2023/06/19 12:25:02;;;;;;;13.18;7.07;;;27.30;99.90;;;;;;4944005;28;20669;-52
2023/06/19 12:27:27;;;;;;;17.15;7.75;;;27.40;99.90;;;;;;4955872;28;20114;-52
2023/06/19 12:29:53;;;;;;;11.63;6.70;;;27.40;99.90;;;;;;4948705;28;20048;-52
2023/06/19 12:32:21;;;;;;;10.93;6.60;;;27.40;99.90;;;;;;4952447;28;20019;-52
2023/06/19 12:34:46;;;;;;;15.70;6.85;;;27.40;99.90;;;;;;4960080;28;20035;-51
2023/06/19 12:37:19;;;;;;;16.50;8.02;;;27.50;99.90;;;;;;4954232;28;20506;-51
2023/06/19 12:39:44;;;;;;;20.30;8.45;;;27.50;99.90;;;;;;4953696;28;20054;-51